AAL3278 KMIA-KMSY
Flight info
| Callsign | AAL3278 |
|---|---|
| Flight time | 1h 43m |
| Altitude | 34000 |
| Route | GLADZ4 BAGGS REMIS Y280 REDFN HRV |
| Aircraft | B738/M-SDE2E3FGHIRWXY/LB1 |
Departure
| Time | 2026-05-07 22:21 |
|---|---|
| Airport | Miami International Airport (KMIA) |
Arrival
| Time | 2026-05-08 00:04 |
|---|---|
| Airport | Louis Armstrong New Orleans International Airport (KMSY) |
| Time | Latitude | Longitude | Altitude | Speed | Heading |
|---|---|---|---|---|---|
| 2026-05-07 21:50 | 25.79814 | -80.27138 | 21 ft | 0 kts | 306° |
| 2026-05-07 22:01 | 25.79804 | -80.27124 | 21 ft | 3 kts | 310° |
| 2026-05-07 22:02 | 25.79785 | -80.27104 | 23 ft | 3 kts | 327° |
| 2026-05-07 22:02 | 25.79762 | -80.27094 | 22 ft | 3 kts | 8° |
| 2026-05-07 22:02 | 25.79751 | -80.27098 | 25 ft | 1 kts | 41° |
| 2026-05-07 22:08 | 25.79757 | -80.27092 | 22 ft | 5 kts | 41° |
| 2026-05-07 22:08 | 25.79789 | -80.27061 | 22 ft | 7 kts | 42° |
| 2026-05-07 22:08 | 25.79834 | -80.27022 | 22 ft | 9 kts | 31° |
| 2026-05-07 22:08 | 25.79904 | -80.26989 | 21 ft | 13 kts | 18° |
| 2026-05-07 22:09 | 25.79982 | -80.27018 | 20 ft | 13 kts | 311° |
| 2026-05-07 22:09 | 25.80005 | -80.27088 | 21 ft | 10 kts | 269° |
| 2026-05-07 22:09 | 25.80001 | -80.27171 | 23 ft | 12 kts | 265° |
| 2026-05-07 22:09 | 25.79995 | -80.27269 | 23 ft | 14 kts | 268° |
| 2026-05-07 22:10 | 25.79992 | -80.27390 | 22 ft | 17 kts | 268° |
| 2026-05-07 22:10 | 25.80004 | -80.27475 | 17 ft | 7 kts | 308° |
| 2026-05-07 22:10 | 25.80057 | -80.27512 | 17 ft | 11 kts | 313° |
| 2026-05-07 22:10 | 25.80066 | -80.27594 | 17 ft | 12 kts | 266° |
| 2026-05-07 22:11 | 25.80060 | -80.27690 | 16 ft | 11 kts | 266° |
| 2026-05-07 22:11 | 25.80055 | -80.27788 | 15 ft | 14 kts | 266° |
| 2026-05-07 22:11 | 25.80051 | -80.27906 | 12 ft | 16 kts | 268° |
| 2026-05-07 22:11 | 25.80048 | -80.28014 | 11 ft | 13 kts | 266° |
| 2026-05-07 22:12 | 25.80043 | -80.28105 | 13 ft | 10 kts | 267° |
| 2026-05-07 22:12 | 25.80040 | -80.28178 | 14 ft | 9 kts | 267° |
| 2026-05-07 22:12 | 25.80037 | -80.28249 | 15 ft | 9 kts | 267° |
| 2026-05-07 22:12 | 25.80033 | -80.28322 | 15 ft | 10 kts | 267° |
| 2026-05-07 22:13 | 25.80029 | -80.28403 | 15 ft | 11 kts | 267° |
| 2026-05-07 22:13 | 25.80025 | -80.28490 | 16 ft | 11 kts | 267° |
| 2026-05-07 22:13 | 25.80022 | -80.28575 | 18 ft | 10 kts | 268° |
| 2026-05-07 22:13 | 25.80020 | -80.28648 | 20 ft | 9 kts | 268° |
| 2026-05-07 22:14 | 25.80018 | -80.28719 | 22 ft | 9 kts | 268° |
| 2026-05-07 22:14 | 25.80016 | -80.28791 | 22 ft | 10 kts | 268° |
| 2026-05-07 22:14 | 25.80013 | -80.28871 | 21 ft | 12 kts | 267° |
| 2026-05-07 22:14 | 25.80008 | -80.28967 | 20 ft | 13 kts | 266° |
| 2026-05-07 22:15 | 25.80002 | -80.29074 | 21 ft | 14 kts | 266° |
| 2026-05-07 22:15 | 25.79998 | -80.29176 | 21 ft | 13 kts | 268° |
| 2026-05-07 22:15 | 25.79995 | -80.29268 | 20 ft | 13 kts | 268° |
| 2026-05-07 22:15 | 25.79990 | -80.29376 | 17 ft | 16 kts | 266° |
| 2026-05-07 22:16 | 25.79982 | -80.29507 | 14 ft | 18 kts | 266° |
| 2026-05-07 22:16 | 25.79975 | -80.29635 | 14 ft | 16 kts | 266° |
| 2026-05-07 22:16 | 25.79967 | -80.29714 | 14 ft | 10 kts | 261° |
| 2026-05-07 22:16 | 25.79952 | -80.29792 | 13 ft | 11 kts | 253° |
| 2026-05-07 22:17 | 25.79939 | -80.29885 | 12 ft | 13 kts | 265° |
| 2026-05-07 22:17 | 25.79941 | -80.29952 | 12 ft | 2 kts | 281° |
| 2026-05-07 22:19 | 25.79941 | -80.29953 | 12 ft | 1 kts | 281° |
| 2026-05-07 22:19 | 25.79951 | -80.29999 | 13 ft | 9 kts | 284° |
| 2026-05-07 22:20 | 25.79974 | -80.30069 | 13 ft | 10 kts | 297° |
| 2026-05-07 22:20 | 25.80026 | -80.30120 | 15 ft | 10 kts | 349° |
| 2026-05-07 22:20 | 25.80073 | -80.30058 | 13 ft | 16 kts | 82° |
| 2026-05-07 22:20 | 25.80074 | -80.30040 | 13 ft | 0 kts | 87° |
| 2026-05-07 22:21 | 25.80074 | -80.30030 | 13 ft | 14 kts | 87° |
| 2026-05-07 22:21 | 25.80096 | -80.29558 | 14 ft | 106 kts | 88° |
| 2026-05-07 22:21 | 25.80121 | -80.28450 | 89 ft | 175 kts | 92° |
| 2026-05-07 22:21 | 25.80146 | -80.27074 | 1024 ft | 179 kts | 90° |
| 2026-05-07 22:22 | 25.80138 | -80.25623 | 1647 ft | 200 kts | 89° |
| 2026-05-07 22:22 | 25.80139 | -80.24034 | 2227 ft | 211 kts | 90° |
| 2026-05-07 22:22 | 25.80119 | -80.22368 | 2761 ft | 220 kts | 91° |
| 2026-05-07 22:22 | 25.80111 | -80.20640 | 3308 ft | 228 kts | 87° |
| 2026-05-07 22:23 | 25.80212 | -80.18857 | 3854 ft | 235 kts | 83° |
| 2026-05-07 22:23 | 25.80817 | -80.17179 | 4365 ft | 239 kts | 45° |
| 2026-05-07 22:23 | 25.82188 | -80.16178 | 4945 ft | 238 kts | 17° |
| 2026-05-07 22:23 | 25.83816 | -80.15849 | 5491 ft | 239 kts | 1° |
| 2026-05-07 22:24 | 25.85492 | -80.15794 | 6046 ft | 244 kts | 359° |
| 2026-05-07 22:24 | 25.87208 | -80.15763 | 6556 ft | 250 kts | 0° |
| 2026-05-07 22:24 | 25.88962 | -80.15726 | 7079 ft | 254 kts | 358° |
| 2026-05-07 22:24 | 25.90718 | -80.16071 | 7602 ft | 258 kts | 343° |
| 2026-05-07 22:25 | 25.92442 | -80.16694 | 8120 ft | 264 kts | 341° |
| 2026-05-07 22:25 | 25.94205 | -80.17350 | 8628 ft | 271 kts | 342° |
| 2026-05-07 22:25 | 25.96017 | -80.18007 | 9137 ft | 283 kts | 342° |
| 2026-05-07 22:25 | 25.97751 | -80.19053 | 9692 ft | 289 kts | 318° |
| 2026-05-07 22:26 | 25.98924 | -80.20885 | 10224 ft | 296 kts | 293° |
| 2026-05-07 22:26 | 25.99390 | -80.23135 | 10772 ft | 302 kts | 279° |
| 2026-05-07 22:26 | 25.99646 | -80.25466 | 11286 ft | 304 kts | 278° |
| 2026-05-07 22:26 | 25.99849 | -80.27807 | 11807 ft | 306 kts | 274° |
| 2026-05-07 22:27 | 25.99859 | -80.30186 | 12346 ft | 309 kts | 271° |
| 2026-05-07 22:27 | 25.99814 | -80.32603 | 12898 ft | 317 kts | 271° |
| 2026-05-07 22:27 | 25.99782 | -80.35079 | 13466 ft | 325 kts | 271° |
| 2026-05-07 22:27 | 25.99767 | -80.37625 | 14009 ft | 332 kts | 272° |
| 2026-05-07 22:28 | 25.99761 | -80.40219 | 14521 ft | 339 kts | 271° |
| 2026-05-07 22:28 | 25.99406 | -80.42832 | 15017 ft | 349 kts | 252° |
| 2026-05-07 22:28 | 25.98208 | -80.45209 | 15555 ft | 357 kts | 235° |
| 2026-05-07 22:28 | 25.96677 | -80.47417 | 16067 ft | 364 kts | 233° |
| 2026-05-07 22:29 | 25.95074 | -80.49629 | 16559 ft | 369 kts | 233° |
| 2026-05-07 22:29 | 25.93465 | -80.51841 | 17059 ft | 375 kts | 233° |
| 2026-05-07 22:29 | 25.91825 | -80.54111 | 17551 ft | 379 kts | 233° |
| 2026-05-07 22:29 | 25.90174 | -80.56418 | 18068 ft | 383 kts | 233° |
| 2026-05-07 22:30 | 25.88515 | -80.58750 | 18539 ft | 386 kts | 234° |
| 2026-05-07 22:30 | 25.86845 | -80.61107 | 18990 ft | 389 kts | 234° |
| 2026-05-07 22:30 | 25.85713 | -80.62705 | 19296 ft | 391 kts | 234° |
| 2026-05-07 22:30 | 25.84030 | -80.65085 | 19751 ft | 393 kts | 234° |
| 2026-05-07 22:31 | 25.82336 | -80.67477 | 20220 ft | 395 kts | 234° |
| 2026-05-07 22:31 | 25.80655 | -80.69848 | 20688 ft | 397 kts | 234° |
| 2026-05-07 22:31 | 25.78968 | -80.72283 | 21166 ft | 397 kts | 239° |
| 2026-05-07 22:31 | 25.77800 | -80.75022 | 21636 ft | 392 kts | 255° |
| 2026-05-07 22:32 | 25.77041 | -80.77929 | 22155 ft | 392 kts | 257° |
| 2026-05-07 22:32 | 25.76305 | -80.80836 | 22655 ft | 393 kts | 256° |
| 2026-05-07 22:32 | 25.75539 | -80.83762 | 23172 ft | 393 kts | 256° |
| 2026-05-07 22:32 | 25.74755 | -80.86670 | 23669 ft | 394 kts | 256° |
| 2026-05-07 22:33 | 25.73962 | -80.89575 | 24108 ft | 393 kts | 256° |
| 2026-05-07 22:33 | 25.73166 | -80.92479 | 24540 ft | 393 kts | 256° |
| 2026-05-07 22:33 | 25.72372 | -80.95376 | 24990 ft | 393 kts | 256° |
| 2026-05-07 22:33 | 25.71578 | -80.98275 | 25444 ft | 392 kts | 256° |
| 2026-05-07 22:34 | 25.70786 | -81.01166 | 25908 ft | 392 kts | 256° |
| 2026-05-07 22:34 | 25.69995 | -81.04055 | 26374 ft | 391 kts | 256° |
| 2026-05-07 22:34 | 25.69204 | -81.06939 | 26849 ft | 390 kts | 256° |
| 2026-05-07 22:34 | 25.68414 | -81.09820 | 27331 ft | 389 kts | 256° |
| 2026-05-07 22:35 | 25.67627 | -81.12688 | 27827 ft | 388 kts | 256° |
| 2026-05-07 22:35 | 25.66843 | -81.15543 | 28325 ft | 387 kts | 256° |
| 2026-05-07 22:35 | 25.66060 | -81.18388 | 28833 ft | 385 kts | 256° |
| 2026-05-07 22:35 | 25.65323 | -81.21189 | 29334 ft | 382 kts | 262° |
| 2026-05-07 22:36 | 25.65183 | -81.24088 | 29854 ft | 375 kts | 277° |
| 2026-05-07 22:36 | 25.65718 | -81.26887 | 30336 ft | 371 kts | 291° |
| 2026-05-07 22:36 | 25.66771 | -81.29478 | 30814 ft | 368 kts | 296° |
| 2026-05-07 22:36 | 25.67927 | -81.31996 | 31269 ft | 365 kts | 297° |
| 2026-05-07 22:37 | 25.69101 | -81.34484 | 31645 ft | 365 kts | 297° |
| 2026-05-07 22:37 | 25.70278 | -81.36981 | 32006 ft | 364 kts | 297° |
| 2026-05-07 22:37 | 25.71441 | -81.39475 | 32372 ft | 364 kts | 297° |
| 2026-05-07 22:37 | 25.72595 | -81.41975 | 32743 ft | 363 kts | 296° |
| 2026-05-07 22:38 | 25.73741 | -81.44475 | 33108 ft | 362 kts | 296° |
| 2026-05-07 22:38 | 25.74875 | -81.46961 | 33492 ft | 361 kts | 296° |
| 2026-05-07 22:38 | 25.76005 | -81.49445 | 33876 ft | 359 kts | 296° |
| 2026-05-07 22:38 | 25.77134 | -81.51931 | 34022 ft | 365 kts | 296° |
| 2026-05-07 22:39 | 25.78286 | -81.54471 | 34039 ft | 372 kts | 296° |
| 2026-05-07 22:39 | 25.80663 | -81.59717 | 34046 ft | 388 kts | 296° |
| 2026-05-07 22:40 | 25.83133 | -81.65174 | 34047 ft | 403 kts | 296° |
| 2026-05-07 22:40 | 25.85688 | -81.70824 | 34048 ft | 416 kts | 296° |
| 2026-05-07 22:41 | 25.88339 | -81.76624 | 34034 ft | 424 kts | 300° |
| 2026-05-07 22:41 | 25.90128 | -81.79235 | 34037 ft | 428 kts | 313° |
| 2026-05-07 22:41 | 25.92409 | -81.81378 | 34046 ft | 430 kts | 320° |
| 2026-05-07 22:42 | 25.97163 | -81.85311 | 34023 ft | 425 kts | 321° |
| 2026-05-07 22:42 | 26.01886 | -81.89176 | 34038 ft | 421 kts | 320° |
| 2026-05-07 22:43 | 26.06577 | -81.93080 | 34037 ft | 422 kts | 320° |
| 2026-05-07 22:43 | 26.11270 | -81.97025 | 34035 ft | 423 kts | 320° |
| 2026-05-07 22:44 | 26.15961 | -82.00981 | 34032 ft | 423 kts | 320° |
| 2026-05-07 22:44 | 26.20657 | -82.04947 | 34035 ft | 424 kts | 320° |
| 2026-05-07 22:45 | 26.25352 | -82.08914 | 34034 ft | 424 kts | 320° |
| 2026-05-07 22:45 | 26.30050 | -82.12888 | 34033 ft | 424 kts | 320° |
| 2026-05-07 22:46 | 26.34750 | -82.16868 | 34031 ft | 424 kts | 319° |
| 2026-05-07 22:46 | 26.39413 | -82.20820 | 34030 ft | 423 kts | 319° |
| 2026-05-07 22:47 | 26.44104 | -82.24801 | 34030 ft | 423 kts | 319° |
| 2026-05-07 22:47 | 26.48784 | -82.28776 | 34029 ft | 422 kts | 319° |
| 2026-05-07 22:48 | 26.53459 | -82.32750 | 34032 ft | 422 kts | 319° |
| 2026-05-07 22:48 | 26.58127 | -82.36724 | 34029 ft | 421 kts | 319° |
| 2026-05-07 22:49 | 26.62784 | -82.40692 | 34031 ft | 421 kts | 319° |
| 2026-05-07 22:49 | 26.67439 | -82.44663 | 34029 ft | 420 kts | 319° |
| 2026-05-07 22:50 | 26.72084 | -82.48630 | 34032 ft | 420 kts | 319° |
| 2026-05-07 22:50 | 26.76726 | -82.52598 | 34031 ft | 420 kts | 319° |
| 2026-05-07 22:51 | 26.81346 | -82.56551 | 34032 ft | 420 kts | 319° |
| 2026-05-07 22:51 | 26.85989 | -82.60529 | 34027 ft | 420 kts | 319° |
| 2026-05-07 22:52 | 26.90630 | -82.64509 | 34031 ft | 420 kts | 319° |
| 2026-05-07 22:52 | 26.95272 | -82.68494 | 34028 ft | 420 kts | 319° |
| 2026-05-07 22:53 | 26.99914 | -82.72483 | 34031 ft | 421 kts | 319° |
| 2026-05-07 22:53 | 27.04559 | -82.76480 | 34030 ft | 421 kts | 319° |
| 2026-05-07 22:54 | 27.09174 | -82.80455 | 34028 ft | 421 kts | 319° |
| 2026-05-07 22:54 | 27.13382 | -82.84920 | 34036 ft | 414 kts | 302° |
| 2026-05-07 22:54 | 27.14699 | -82.87775 | 34032 ft | 412 kts | 290° |
| 2026-05-07 22:55 | 27.15692 | -82.90794 | 34033 ft | 412 kts | 289° |
| 2026-05-07 22:55 | 27.17579 | -82.96885 | 34033 ft | 412 kts | 289° |
| 2026-05-07 22:56 | 27.19470 | -83.02974 | 34028 ft | 413 kts | 289° |
| 2026-05-07 22:56 | 27.21388 | -83.09051 | 34027 ft | 413 kts | 289° |
| 2026-05-07 22:57 | 27.23320 | -83.15130 | 34030 ft | 413 kts | 289° |
| 2026-05-07 22:57 | 27.25245 | -83.21181 | 34027 ft | 413 kts | 289° |
| 2026-05-07 22:58 | 27.27189 | -83.27303 | 34025 ft | 413 kts | 289° |
| 2026-05-07 22:58 | 27.29106 | -83.33350 | 34024 ft | 413 kts | 289° |
| 2026-05-07 22:59 | 27.31033 | -83.39438 | 34025 ft | 413 kts | 289° |
| 2026-05-07 22:59 | 27.32956 | -83.45527 | 34022 ft | 413 kts | 289° |
| 2026-05-07 23:00 | 27.34876 | -83.51616 | 34026 ft | 413 kts | 289° |
| 2026-05-07 23:00 | 27.36794 | -83.57711 | 34025 ft | 413 kts | 289° |
| 2026-05-07 23:01 | 27.38707 | -83.63798 | 34027 ft | 413 kts | 289° |
| 2026-05-07 23:01 | 27.40616 | -83.69884 | 34018 ft | 412 kts | 289° |
| 2026-05-07 23:02 | 27.42522 | -83.75970 | 34023 ft | 412 kts | 289° |
| 2026-05-07 23:02 | 27.44423 | -83.82050 | 34026 ft | 412 kts | 289° |
| 2026-05-07 23:03 | 27.46323 | -83.88140 | 34022 ft | 412 kts | 289° |
| 2026-05-07 23:03 | 27.48218 | -83.94221 | 34021 ft | 412 kts | 289° |
| 2026-05-07 23:04 | 27.50115 | -84.00321 | 34025 ft | 412 kts | 289° |
| 2026-05-07 23:04 | 27.51994 | -84.06376 | 34024 ft | 412 kts | 289° |
| 2026-05-07 23:05 | 27.53884 | -84.12474 | 34020 ft | 412 kts | 289° |
| 2026-05-07 23:05 | 27.55771 | -84.18574 | 34022 ft | 412 kts | 289° |
| 2026-05-07 23:06 | 27.57656 | -84.24678 | 34021 ft | 412 kts | 288° |
| 2026-05-07 23:06 | 27.59542 | -84.30794 | 34023 ft | 413 kts | 288° |
| 2026-05-07 23:07 | 27.61422 | -84.36906 | 34022 ft | 413 kts | 288° |
| 2026-05-07 23:07 | 27.63302 | -84.43025 | 34022 ft | 413 kts | 288° |
| 2026-05-07 23:08 | 27.65177 | -84.49139 | 34020 ft | 413 kts | 288° |
| 2026-05-07 23:08 | 27.67038 | -84.55219 | 34025 ft | 412 kts | 288° |
| 2026-05-07 23:09 | 27.68906 | -84.61334 | 34024 ft | 412 kts | 288° |
| 2026-05-07 23:09 | 27.70774 | -84.67456 | 34029 ft | 412 kts | 288° |
| 2026-05-07 23:10 | 27.72635 | -84.73570 | 34020 ft | 412 kts | 288° |
| 2026-05-07 23:10 | 27.74491 | -84.79676 | 34024 ft | 411 kts | 288° |
| 2026-05-07 23:11 | 27.76344 | -84.85785 | 34013 ft | 411 kts | 288° |
| 2026-05-07 23:11 | 27.78192 | -84.91888 | 34018 ft | 411 kts | 288° |
| 2026-05-07 23:12 | 27.80035 | -84.97985 | 34022 ft | 410 kts | 288° |
| 2026-05-07 23:12 | 27.81876 | -85.04086 | 34020 ft | 410 kts | 288° |
| 2026-05-07 23:13 | 27.83712 | -85.10182 | 34017 ft | 410 kts | 288° |
| 2026-05-07 23:13 | 27.85544 | -85.16275 | 34005 ft | 409 kts | 287° |
| 2026-05-07 23:14 | 27.87372 | -85.22367 | 34009 ft | 409 kts | 287° |
| 2026-05-07 23:14 | 27.89203 | -85.28458 | 34020 ft | 409 kts | 288° |
| 2026-05-07 23:15 | 27.91052 | -85.34541 | 34014 ft | 409 kts | 288° |
| 2026-05-07 23:15 | 27.92899 | -85.40616 | 34009 ft | 409 kts | 287° |
| 2026-05-07 23:16 | 27.94731 | -85.46661 | 34018 ft | 409 kts | 287° |
| 2026-05-07 23:16 | 27.96572 | -85.52751 | 34007 ft | 409 kts | 287° |
| 2026-05-07 23:17 | 27.98407 | -85.58836 | 34010 ft | 409 kts | 287° |
| 2026-05-07 23:17 | 28.00240 | -85.64925 | 34012 ft | 409 kts | 287° |
| 2026-05-07 23:18 | 28.02070 | -85.71014 | 34008 ft | 409 kts | 287° |
| 2026-05-07 23:18 | 28.03898 | -85.77108 | 34013 ft | 409 kts | 287° |
| 2026-05-07 23:19 | 28.05726 | -85.83210 | 34010 ft | 409 kts | 287° |
| 2026-05-07 23:19 | 28.07240 | -85.88274 | 34011 ft | 409 kts | 287° |
| 2026-05-07 23:20 | 28.09357 | -85.95371 | 34008 ft | 409 kts | 287° |
| 2026-05-07 23:20 | 28.11175 | -86.01475 | 34012 ft | 409 kts | 287° |
| 2026-05-07 23:21 | 28.12695 | -86.06587 | 34008 ft | 409 kts | 287° |
| 2026-05-07 23:21 | 28.14496 | -86.12655 | 34009 ft | 409 kts | 287° |
| 2026-05-07 23:22 | 28.16308 | -86.18771 | 34059 ft | 409 kts | 285° |
| 2026-05-07 23:22 | 28.18101 | -86.24827 | 34009 ft | 401 kts | 285° |
| 2026-05-07 23:23 | 28.19866 | -86.30805 | 34007 ft | 400 kts | 285° |
| 2026-05-07 23:23 | 28.21629 | -86.36792 | 34007 ft | 400 kts | 285° |
| 2026-05-07 23:24 | 28.23388 | -86.42773 | 34006 ft | 400 kts | 285° |
| 2026-05-07 23:24 | 28.25149 | -86.48772 | 34002 ft | 401 kts | 285° |
| 2026-05-07 23:25 | 28.26899 | -86.54746 | 34005 ft | 402 kts | 285° |
| 2026-05-07 23:25 | 28.28659 | -86.60761 | 34005 ft | 402 kts | 285° |
| 2026-05-07 23:26 | 28.30419 | -86.66789 | 34003 ft | 403 kts | 285° |
| 2026-05-07 23:26 | 28.32184 | -86.72836 | 34000 ft | 403 kts | 285° |
| 2026-05-07 23:27 | 28.34841 | -86.81903 | 33997 ft | 404 kts | 285° |
| 2026-05-07 23:27 | 28.36613 | -86.87961 | 33996 ft | 404 kts | 284° |
| 2026-05-07 23:28 | 28.38383 | -86.94027 | 33998 ft | 405 kts | 284° |
| 2026-05-07 23:28 | 28.40143 | -87.00071 | 34002 ft | 405 kts | 284° |
| 2026-05-07 23:29 | 28.41908 | -87.06145 | 33998 ft | 405 kts | 284° |
| 2026-05-07 23:29 | 28.43668 | -87.12213 | 33999 ft | 404 kts | 284° |
| 2026-05-07 23:30 | 28.45425 | -87.18280 | 34000 ft | 404 kts | 284° |
| 2026-05-07 23:30 | 28.47174 | -87.24333 | 33997 ft | 403 kts | 284° |
| 2026-05-07 23:31 | 28.48922 | -87.30392 | 34001 ft | 403 kts | 284° |
| 2026-05-07 23:31 | 28.50667 | -87.36456 | 34002 ft | 404 kts | 284° |
| 2026-05-07 23:32 | 28.52401 | -87.42491 | 34000 ft | 404 kts | 284° |
| 2026-05-07 23:32 | 28.54145 | -87.48570 | 33999 ft | 405 kts | 284° |
| 2026-05-07 23:33 | 28.55889 | -87.54661 | 34000 ft | 405 kts | 284° |
| 2026-05-07 23:33 | 28.57634 | -87.60770 | 34001 ft | 406 kts | 284° |
| 2026-05-07 23:34 | 28.59377 | -87.66880 | 33999 ft | 406 kts | 284° |
| 2026-05-07 23:34 | 28.61120 | -87.73006 | 33997 ft | 407 kts | 283° |
| 2026-05-07 23:35 | 28.62851 | -87.79098 | 33999 ft | 407 kts | 283° |
| 2026-05-07 23:35 | 28.64591 | -87.85233 | 34000 ft | 407 kts | 283° |
| 2026-05-07 23:36 | 28.66329 | -87.91375 | 34000 ft | 407 kts | 283° |
| 2026-05-07 23:36 | 28.68064 | -87.97520 | 33993 ft | 407 kts | 283° |
| 2026-05-07 23:37 | 28.69796 | -88.03661 | 33996 ft | 407 kts | 283° |
| 2026-05-07 23:37 | 28.71522 | -88.09795 | 33995 ft | 406 kts | 283° |
| 2026-05-07 23:38 | 28.73239 | -88.15917 | 33999 ft | 405 kts | 283° |
| 2026-05-07 23:38 | 28.74951 | -88.22042 | 34001 ft | 406 kts | 283° |
| 2026-05-07 23:39 | 28.76662 | -88.28173 | 33997 ft | 406 kts | 283° |
| 2026-05-07 23:39 | 28.78372 | -88.34311 | 33995 ft | 406 kts | 283° |
| 2026-05-07 23:40 | 28.80066 | -88.40404 | 33993 ft | 405 kts | 283° |
| 2026-05-07 23:40 | 28.80923 | -88.43496 | 33710 ft | 409 kts | 283° |
| 2026-05-07 23:40 | 28.81778 | -88.46580 | 33329 ft | 406 kts | 283° |
| 2026-05-07 23:41 | 28.82627 | -88.49640 | 32956 ft | 404 kts | 283° |
| 2026-05-07 23:41 | 28.83469 | -88.52682 | 32581 ft | 405 kts | 283° |
| 2026-05-07 23:41 | 28.84317 | -88.55754 | 32223 ft | 407 kts | 283° |
| 2026-05-07 23:41 | 28.85169 | -88.58836 | 31865 ft | 407 kts | 283° |
| 2026-05-07 23:42 | 28.86020 | -88.61922 | 31515 ft | 408 kts | 283° |
| 2026-05-07 23:42 | 28.86870 | -88.65001 | 31157 ft | 408 kts | 283° |
| 2026-05-07 23:42 | 28.87722 | -88.68065 | 30808 ft | 408 kts | 285° |
| 2026-05-07 23:42 | 28.88949 | -88.71012 | 30449 ft | 416 kts | 297° |
| 2026-05-07 23:43 | 28.90724 | -88.73650 | 30126 ft | 420 kts | 304° |
| 2026-05-07 23:43 | 28.92589 | -88.76119 | 29745 ft | 421 kts | 305° |
| 2026-05-07 23:43 | 28.94508 | -88.78605 | 29357 ft | 424 kts | 305° |
| 2026-05-07 23:43 | 28.96478 | -88.81155 | 28968 ft | 428 kts | 305° |
| 2026-05-07 23:44 | 28.98442 | -88.83711 | 28578 ft | 428 kts | 305° |
| 2026-05-07 23:44 | 29.00400 | -88.86276 | 28194 ft | 428 kts | 305° |
| 2026-05-07 23:44 | 29.02348 | -88.88846 | 27757 ft | 429 kts | 305° |
| 2026-05-07 23:44 | 29.04307 | -88.91446 | 27129 ft | 434 kts | 305° |
| 2026-05-07 23:45 | 29.06284 | -88.94077 | 26527 ft | 437 kts | 305° |
| 2026-05-07 23:45 | 29.08269 | -88.96723 | 25938 ft | 440 kts | 305° |
| 2026-05-07 23:45 | 29.10260 | -88.99377 | 25362 ft | 439 kts | 306° |
| 2026-05-07 23:45 | 29.12232 | -89.02003 | 24789 ft | 431 kts | 306° |
| 2026-05-07 23:46 | 29.14168 | -89.04582 | 24230 ft | 424 kts | 306° |
| 2026-05-07 23:46 | 29.16082 | -89.07136 | 23689 ft | 422 kts | 306° |
| 2026-05-07 23:46 | 29.17984 | -89.09678 | 23057 ft | 420 kts | 306° |
| 2026-05-07 23:46 | 29.19882 | -89.12217 | 22417 ft | 418 kts | 306° |
| 2026-05-07 23:47 | 29.21767 | -89.14741 | 21789 ft | 416 kts | 306° |
| 2026-05-07 23:47 | 29.23640 | -89.17250 | 21184 ft | 414 kts | 306° |
| 2026-05-07 23:47 | 29.25506 | -89.19751 | 20577 ft | 412 kts | 306° |
| 2026-05-07 23:47 | 29.27361 | -89.22238 | 19988 ft | 409 kts | 305° |
| 2026-05-07 23:48 | 29.29181 | -89.24679 | 19408 ft | 407 kts | 305° |
| 2026-05-07 23:48 | 29.31015 | -89.27140 | 18848 ft | 404 kts | 305° |
| 2026-05-07 23:48 | 29.32829 | -89.29576 | 18291 ft | 401 kts | 305° |
| 2026-05-07 23:48 | 29.34636 | -89.32006 | 17652 ft | 399 kts | 305° |
| 2026-05-07 23:49 | 29.36430 | -89.34417 | 17026 ft | 396 kts | 305° |
| 2026-05-07 23:49 | 29.38212 | -89.36816 | 16410 ft | 394 kts | 305° |
| 2026-05-07 23:49 | 29.39983 | -89.39200 | 15811 ft | 391 kts | 306° |
| 2026-05-07 23:49 | 29.41740 | -89.41567 | 15218 ft | 386 kts | 306° |
| 2026-05-07 23:50 | 29.43476 | -89.43906 | 14642 ft | 383 kts | 306° |
| 2026-05-07 23:50 | 29.45196 | -89.46227 | 14065 ft | 381 kts | 306° |
| 2026-05-07 23:50 | 29.46895 | -89.48520 | 13461 ft | 377 kts | 306° |
| 2026-05-07 23:50 | 29.48587 | -89.50805 | 12831 ft | 374 kts | 306° |
| 2026-05-07 23:51 | 29.50230 | -89.53026 | 12226 ft | 371 kts | 307° |
| 2026-05-07 23:51 | 29.51891 | -89.55271 | 11621 ft | 368 kts | 307° |
| 2026-05-07 23:51 | 29.53518 | -89.57470 | 11211 ft | 351 kts | 307° |
| 2026-05-07 23:51 | 29.55047 | -89.59534 | 11069 ft | 330 kts | 307° |
| 2026-05-07 23:52 | 29.56502 | -89.61500 | 10996 ft | 315 kts | 307° |
| 2026-05-07 23:52 | 29.57895 | -89.63385 | 10746 ft | 306 kts | 307° |
| 2026-05-07 23:52 | 29.59250 | -89.65223 | 10406 ft | 295 kts | 307° |
| 2026-05-07 23:52 | 29.60545 | -89.66979 | 10213 ft | 282 kts | 307° |
| 2026-05-07 23:53 | 29.61797 | -89.68680 | 10049 ft | 275 kts | 308° |
| 2026-05-07 23:53 | 29.63038 | -89.70367 | 9877 ft | 277 kts | 308° |
| 2026-05-07 23:53 | 29.64275 | -89.72048 | 9655 ft | 270 kts | 308° |
| 2026-05-07 23:53 | 29.65454 | -89.73649 | 9384 ft | 254 kts | 308° |
| 2026-05-07 23:54 | 29.66566 | -89.75157 | 9115 ft | 240 kts | 308° |
| 2026-05-07 23:54 | 29.67616 | -89.76584 | 8841 ft | 228 kts | 308° |
| 2026-05-07 23:54 | 29.68617 | -89.77945 | 8579 ft | 219 kts | 308° |
| 2026-05-07 23:54 | 29.69586 | -89.79265 | 8329 ft | 214 kts | 308° |
| 2026-05-07 23:55 | 29.70548 | -89.80576 | 7950 ft | 219 kts | 308° |
| 2026-05-07 23:55 | 29.71548 | -89.81940 | 7453 ft | 224 kts | 308° |
| 2026-05-07 23:55 | 29.72544 | -89.83296 | 6979 ft | 224 kts | 308° |
| 2026-05-07 23:55 | 29.73544 | -89.84659 | 6509 ft | 222 kts | 308° |
| 2026-05-07 23:56 | 29.74539 | -89.86015 | 6006 ft | 221 kts | 308° |
| 2026-05-07 23:56 | 29.75530 | -89.87366 | 5497 ft | 221 kts | 308° |
| 2026-05-07 23:56 | 29.76519 | -89.88714 | 4994 ft | 220 kts | 309° |
| 2026-05-07 23:56 | 29.77506 | -89.90061 | 4474 ft | 220 kts | 309° |
| 2026-05-07 23:57 | 29.78499 | -89.91416 | 3970 ft | 224 kts | 310° |
| 2026-05-07 23:57 | 29.79513 | -89.92801 | 3466 ft | 228 kts | 310° |
| 2026-05-07 23:57 | 29.80531 | -89.94191 | 3126 ft | 223 kts | 311° |
| 2026-05-07 23:57 | 29.81503 | -89.95520 | 3012 ft | 212 kts | 311° |
| 2026-05-07 23:58 | 29.82442 | -89.96803 | 2994 ft | 207 kts | 311° |
| 2026-05-07 23:58 | 29.83374 | -89.98077 | 3001 ft | 210 kts | 311° |
| 2026-05-07 23:58 | 29.84318 | -89.99366 | 2996 ft | 210 kts | 311° |
| 2026-05-07 23:58 | 29.85353 | -90.00538 | 2978 ft | 208 kts | 332° |
| 2026-05-07 23:59 | 29.86687 | -90.01157 | 3003 ft | 206 kts | 340° |
| 2026-05-07 23:59 | 29.88021 | -90.01767 | 3006 ft | 206 kts | 339° |
| 2026-05-07 23:59 | 29.89359 | -90.02392 | 3005 ft | 209 kts | 339° |
| 2026-05-07 23:59 | 29.90686 | -90.03014 | 2992 ft | 209 kts | 339° |
| 2026-05-08 00:00 | 29.92029 | -90.03646 | 2992 ft | 208 kts | 339° |
| 2026-05-08 00:00 | 29.93350 | -90.04317 | 2980 ft | 208 kts | 328° |
| 2026-05-08 00:00 | 29.94213 | -90.05618 | 3018 ft | 208 kts | 290° |
| 2026-05-08 00:00 | 29.94624 | -90.07227 | 3004 ft | 211 kts | 288° |
| 2026-05-08 00:01 | 29.95037 | -90.08859 | 2816 ft | 211 kts | 288° |
| 2026-05-08 00:01 | 29.95424 | -90.10463 | 2544 ft | 204 kts | 287° |
| 2026-05-08 00:01 | 29.95795 | -90.12017 | 2279 ft | 196 kts | 287° |
| 2026-05-08 00:01 | 29.96145 | -90.13487 | 2014 ft | 184 kts | 288° |
| 2026-05-08 00:02 | 29.96474 | -90.14868 | 1781 ft | 173 kts | 289° |
| 2026-05-08 00:02 | 29.96785 | -90.16168 | 1594 ft | 161 kts | 289° |
| 2026-05-08 00:02 | 29.97066 | -90.17343 | 1402 ft | 148 kts | 288° |
| 2026-05-08 00:02 | 29.97335 | -90.18466 | 1190 ft | 145 kts | 288° |
| 2026-05-08 00:03 | 29.97605 | -90.19590 | 1002 ft | 146 kts | 288° |
| 2026-05-08 00:03 | 29.97873 | -90.20711 | 820 ft | 145 kts | 288° |
| 2026-05-08 00:03 | 29.98143 | -90.21836 | 634 ft | 146 kts | 287° |
| 2026-05-08 00:03 | 29.98408 | -90.22943 | 429 ft | 141 kts | 288° |
| 2026-05-08 00:04 | 29.98666 | -90.24022 | 262 ft | 140 kts | 288° |
| 2026-05-08 00:04 | 29.98920 | -90.25106 | 62 ft | 141 kts | 287° |
| 2026-05-08 00:04 | 29.99159 | -90.26079 | 10 ft | 93 kts | 286° |
| 2026-05-08 00:04 | 29.99246 | -90.26468 | 12 ft | 13 kts | 267° |
| 2026-05-08 00:05 | 29.99244 | -90.26487 | 12 ft | 3 kts | 260° |
| 2026-05-08 00:05 | 29.99237 | -90.26511 | 12 ft | 0 kts | 249° |
| 2026-05-08 00:05 | 29.99237 | -90.26512 | 12 ft | 2 kts | 248° |
| 2026-05-08 00:06 | 29.99231 | -90.26517 | 14 ft | 2 kts | 221° |
| 2026-05-08 00:06 | 29.99222 | -90.26523 | 13 ft | 1 kts | 202° |
| 2026-05-08 00:06 | 29.99216 | -90.26521 | 12 ft | 1 kts | 174° |
| 2026-05-08 00:06 | 29.99204 | -90.26520 | 12 ft | 3 kts | 173° |
| 2026-05-08 00:07 | 29.99177 | -90.26511 | 13 ft | 20 kts | 158° |
| 2026-05-08 00:07 | 29.99111 | -90.26388 | 13 ft | 19 kts | 107° |
| 2026-05-08 00:07 | 29.99073 | -90.26242 | 11 ft | 18 kts | 107° |
| 2026-05-08 00:07 | 29.99042 | -90.26110 | 11 ft | 17 kts | 104° |
| 2026-05-08 00:08 | 29.99013 | -90.25986 | 12 ft | 16 kts | 105° |
| 2026-05-08 00:08 | 29.98986 | -90.25869 | 13 ft | 14 kts | 105° |
| 2026-05-08 00:08 | 29.98960 | -90.25769 | 14 ft | 12 kts | 106° |
| 2026-05-08 00:08 | 29.98926 | -90.25693 | 14 ft | 10 kts | 121° |
| 2026-05-08 00:09 | 29.98895 | -90.25617 | 13 ft | 11 kts | 112° |
| 2026-05-08 00:09 | 29.98864 | -90.25534 | 12 ft | 12 kts | 115° |
| 2026-05-08 00:09 | 29.98809 | -90.25474 | 13 ft | 11 kts | 162° |
| 2026-05-08 00:09 | 29.98742 | -90.25456 | 12 ft | 10 kts | 167° |
| 2026-05-08 00:10 | 29.98705 | -90.25432 | 12 ft | 9 kts | 133° |
| 2026-05-08 00:10 | 29.98681 | -90.25389 | 12 ft | 0 kts | 119° |